Time;durP1;ratioP1;P1;durP2;ratioP2;P2;SDS_P1;SDS_P2;PMS_P1;PMS_P2;Temp;Humidity;BMP_temperature;BMP_pressure;BME280_temperature;BME280_humidity;BME280_pressure;Samples;Min_cycle;Max_cycle;Signal;HPM_P1;HPM_P2
2022/06/24 00:00:11;;;;;;;;;;;;;;;19.87;52.89;99200.45;1756167;82;20991;-39
2022/06/24 00:02:49;;;;;;;5.80;3.10;;;;;;;19.83;53.53;99195.91;1752843;81;20149;-39
2022/06/24 00:05:14;;;;;;;;;;;;;;;19.84;52.77;99191.39;1756161;82;21042;-39
2022/06/24 00:07:46;;;;;;;6.45;3.95;;;;;;;19.80;53.00;99190.84;1753406;82;20605;-40
2022/06/24 00:10:25;;;;;;;5.92;3.20;;;;;;;19.81;52.83;99190.34;1752294;82;21011;-39
2022/06/24 00:12:52;;;;;;;8.33;3.67;;;;;;;19.76;52.80;99185.47;1753699;82;21030;-39
2022/06/24 00:15:31;;;;;;;5.22;3.22;;;;;;;19.74;52.92;99192.28;1753511;82;20995;-40
2022/06/24 00:18:16;;;;;;;5.45;3.47;;;;;;;19.73;53.06;99183.91;1753148;82;21592;-38
2022/06/24 00:20:47;;;;;;;8.15;3.83;;;;;;;19.72;53.00;99189.39;1753503;82;20991;-38
2022/06/24 00:23:19;;;;;;;8.05;3.75;;;;;;;19.70;53.02;99192.20;1753520;82;21434;-39
2022/06/24 00:25:47;;;;;;;9.88;4.42;;;;;;;19.67;52.77;99189.81;1730179;82;21661;-38
2022/06/24 02:43:34;;;;;;;12.05;5.70;;;;;;;18.82;55.16;99182.66;1818364;79;22943;-38
2022/06/24 02:46:09;;;;;;;7.53;4.80;;;;;;;18.76;54.94;99188.86;1793013;80;21101;-40
2022/06/24 02:48:39;;;;;;;6.90;5.10;;;;;;;18.74;55.10;99180.67;1793033;80;21030;-40
2022/06/24 02:51:08;;;;;;;5.33;4.40;;;;;;;18.70;55.17;99185.44;1793064;80;21106;-40
2022/06/24 02:53:35;;;;;;;10.32;5.08;;;;;;;18.68;55.03;99183.41;1793202;80;21034;-39
2022/06/24 02:56:06;;;;;;;5.97;4.78;;;;;;;18.67;55.05;99188.37;1793183;80;21582;-39
2022/06/24 02:58:32;;;;;;;7.78;5.08;;;;;;;18.66;55.00;99189.34;1791713;80;21504;-41
2022/06/24 03:01:00;;;;;;;7.28;4.60;;;;;;;18.67;55.32;99192.86;1793327;80;20995;-40
2022/06/24 03:03:27;;;;;;;8.03;4.45;;;;;;;18.68;55.18;99190.53;1793038;80;20994;-40
2022/06/24 03:05:54;;;;;;;6.58;4.47;;;;;;;18.68;55.08;99184.73;1793284;80;20967;-39
2022/06/24 03:08:22;;;;;;;9.38;4.97;;;;;;;18.66;55.17;99186.67;1793166;80;21011;-40
2022/06/24 03:10:49;;;;;;;8.58;4.55;;;;;;;18.66;55.47;99189.34;1793059;80;21496;-41
2022/06/24 03:13:16;;;;;;;10.40;4.53;;;;;;;18.65;55.35;99189.50;1793226;80;20991;-40
2022/06/24 03:15:43;;;;;;;12.63;4.70;;;;;;;18.64;55.40;99193.97;1793310;80;20986;-40
2022/06/24 03:18:11;;;;;;;8.98;4.35;;;;;;;18.66;55.23;99195.99;1793167;80;20967;-38
2022/06/24 03:20:37;;;;;;;7.67;4.22;;;;;;;18.65;55.21;99193.00;1793005;80;20999;-39
2022/06/24 03:23:04;;;;;;;6.25;4.50;;;;;;;18.66;55.10;99195.99;1792982;80;20959;-38
2022/06/24 03:25:30;;;;;;;6.03;3.87;;;;;;;18.67;55.39;99193.70;1793234;80;21490;-41
2022/06/24 03:27:56;;;;;;;8.70;4.40;;;;;;;18.66;55.41;99195.99;1793019;80;20978;-40
2022/06/24 03:30:22;;;;;;;7.83;4.72;;;;;;;18.67;55.37;99199.02;1793030;80;20959;-37
2022/06/24 03:32:48;;;;;;;7.20;4.10;;;;;;;18.68;55.27;99196.72;1792992;80;20998;-40
2022/06/24 03:35:14;;;;;;;9.95;4.22;;;;;;;18.70;55.23;99199.22;1793046;80;21468;-39
2022/06/24 03:37:40;;;;;;;5.78;4.00;;;;;;;18.71;55.10;99195.59;1793030;80;21172;-41
2022/06/24 03:40:07;;;;;;;6.45;4.47;;;;;;;18.72;55.00;99196.79;1792977;80;20978;-38
2022/06/24 03:42:33;;;;;;;;;;;;;;;18.72;54.92;99200.78;1788000;80;21003;-39
2022/06/24 03:44:58;;;;;;;11.00;4.28;;;;;;;18.71;55.36;99201.75;1779428;81;20100;-39
2022/06/24 03:47:24;;;;;;;14.87;4.20;;;;;;;18.73;54.76;99199.78;1779474;80;20972;-40
2022/06/24 03:49:53;;;;;;;108.75;8.48;;;;;;;18.75;54.70;99204.48;1779461;80;20999;-41
2022/06/24 03:52:19;;;;;;;5.95;3.67;;;;;;;18.77;54.87;99203.02;1779408;81;21007;-39
2022/06/24 03:54:45;;;;;;;7.17;3.80;;;;;;;18.77;54.93;99201.22;1778814;80;20980;-41
2022/06/24 03:57:12;;;;;;;6.00;3.42;;;;;;;18.78;54.83;99206.05;1778864;81;20987;-38
2022/06/24 03:59:38;;;;;;;8.33;4.20;;;;;;;18.78;54.80;99205.55;1779163;81;21026;-38
2022/06/24 04:02:04;;;;;;;12.68;4.70;;;;;;;18.80;54.77;99208.07;1778787;81;21473;-40
2022/06/24 04:04:30;;;;;;;6.17;3.52;;;;;;;18.81;54.79;99207.14;1778904;81;21476;-40
2022/06/24 04:06:56;;;;;;;4.75;3.47;;;;;;;18.84;54.77;99207.34;1778984;80;20987;-40
2022/06/24 04:09:22;;;;;;;7.00;3.87;;;;;;;18.86;55.03;99204.03;1778922;81;21535;-41
2022/06/24 04:11:49;;;;;;;10.13;4.10;;;;;;;18.87;54.95;99200.41;1778560;81;21524;-38
2022/06/24 04:15:13;;;;;;;6.95;3.83;;;;;;;18.87;55.01;99205.23;1778920;80;20995;-40
2022/06/24 04:16:42;;;;;;;6.75;3.67;;;;;;;18.90;55.24;99203.63;1775397;81;21473;-40
2022/06/24 04:19:08;;;;;;;13.22;3.75;;;;;;;18.94;55.07;99206.86;1778797;80;20968;-39
2022/06/24 04:21:34;;;;;;;5.67;3.87;;;;;;;18.96;55.11;99205.72;1778733;80;20988;-40
2022/06/24 04:24:00;;;;;;;8.75;4.78;;;;;;;18.96;55.01;99202.23;1778776;81;21070;-41
2022/06/24 04:26:25;;;;;;;7.03;4.08;;;;;;;18.99;54.85;99199.26;1778810;81;20967;-41
2022/06/24 04:28:51;;;;;;;5.78;3.83;;;;;;;19.01;54.91;99203.98;1778510;80;21058;-40
2022/06/24 04:31:17;;;;;;;15.78;3.60;;;;;;;19.01;54.92;99203.98;1777596;81;21031;-40
2022/06/24 04:33:43;;;;;;;6.47;3.70;;;;;;;19.04;54.58;99206.34;1777611;81;21034;-38
2022/06/24 04:36:13;;;;;;;8.20;3.77;;;;;;;19.06;54.45;99211.03;1777609;80;21003;-39
2022/06/24 04:38:42;;;;;;;9.35;3.35;;;;;;;19.10;54.52;99212.46;1778754;81;21456;-39
2022/06/24 04:41:13;;;;;;;5.30;3.40;;;;;;;19.11;54.65;99205.30;1778807;81;20967;-40
2022/06/24 04:43:39;;;;;;;5.75;3.85;;;;;;;19.13;54.39;99204.16;1778684;80;21027;-39
2022/06/24 04:46:05;;;;;;;5.90;3.20;;;;;;;19.14;54.28;99203.19;1778804;81;21484;-39
2022/06/24 04:48:33;;;;;;;7.22;3.40;;;;;;;19.18;54.08;99206.41;1778860;80;20963;-39
2022/06/24 04:50:59;;;;;;;5.80;3.40;;;;;;;19.21;53.85;99217.27;1778838;80;21047;-40
2022/06/24 04:53:25;;;;;;;4.40;3.40;;;;;;;19.25;53.78;99222.69;1778894;81;21523;-40
2022/06/24 04:55:51;;;;;;;6.60;3.15;;;;;;;19.27;53.79;99219.39;1779007;80;21057;-40
2022/06/24 04:58:17;;;;;;;8.78;3.37;;;;;;;19.29;53.53;99216.09;1778758;80;21042;-40
2022/06/24 05:00:42;;;;;;;9.90;3.10;;;;;;;19.33;53.42;99216.97;1778769;80;21034;-40
2022/06/24 05:03:09;;;;;;;13.50;3.70;;;;;;;19.36;53.32;99217.20;1778694;81;21035;-40
2022/06/24 05:05:35;;;;;;;10.08;3.95;;;;;;;19.38;53.21;99212.56;1778825;80;20995;-38
2022/06/24 05:08:01;;;;;;;9.05;3.50;;;;;;;19.42;53.20;99219.28;1778764;81;20999;-40
2022/06/24 05:10:26;;;;;;;8.08;3.47;;;;;;;19.45;53.04;99213.67;1778798;81;21003;-39
2022/06/24 05:12:52;;;;;;;8.13;3.65;;;;;;;19.49;53.04;99216.39;1778801;81;21027;-37
2022/06/24 05:15:18;;;;;;;5.87;3.33;;;;;;;19.51;53.08;99222.42;1778805;81;21034;-41
2022/06/24 05:17:44;;;;;;;8.70;3.70;;;;;;;19.55;52.88;99214.50;1778750;80;21538;-40
2022/06/24 05:20:10;;;;;;;7.08;3.10;;;;;;;19.58;52.86;99216.52;1778714;81;20967;-40
2022/06/24 05:22:38;;;;;;;11.25;3.17;;;;;;;19.61;52.75;99215.75;1778971;80;21039;-41
2022/06/24 05:25:06;;;;;;;8.25;3.35;;;;;;;19.62;52.57;99211.24;1778665;80;21445;-40
2022/06/24 05:27:32;;;;;;;8.55;2.92;;;;;;;19.66;52.38;99212.62;1778786;81;21007;-39
2022/06/24 05:29:58;;;;;;;14.75;3.50;;;;;;;19.71;52.09;99202.37;1778758;80;21003;-40
2022/06/24 05:32:24;;;;;;;6.12;3.45;;;;;;;19.76;52.03;99205.48;1778680;81;20971;-40
2022/06/24 05:34:50;;;;;;;13.93;3.10;;;;;;;19.79;51.83;99209.67;1779029;80;20999;-40
2022/06/24 05:37:16;;;;;;;9.15;3.75;;;;;;;19.85;51.60;99214.44;1778780;80;21128;-38
2022/06/24 05:39:42;;;;;;;7.80;5.03;;;;;;;19.89;51.48;99212.66;1778714;80;21003;-40
2022/06/24 05:42:07;;;;;;;16.70;4.45;;;;;;;19.94;51.35;99209.05;1778561;80;21030;-39
2022/06/24 05:44:33;;;;;;;9.18;3.33;;;;;;;19.97;51.36;99209.23;1778813;80;20971;-40
2022/06/24 05:46:59;;;;;;;6.95;3.40;;;;;;;20.00;51.02;99207.62;1778684;81;20963;-39
2022/06/24 05:49:25;;;;;;;6.25;2.90;;;;;;;20.06;50.75;99215.53;1778707;80;21046;-40
2022/06/24 05:51:50;;;;;;;7.50;2.80;;;;;;;20.11;50.57;99218.10;1778763;80;20968;-41
2022/06/24 05:57:00;;;;;;;3.70;2.40;;;;;;;20.20;50.26;99212.38;1778711;81;21088;-42
2022/06/24 05:59:26;;;;;;;7.80;2.42;;;;;;;20.26;49.97;99218.44;1778741;81;20990;-41
2022/06/24 06:01:52;;;;;;;2.70;2.22;;;;;;;20.32;49.78;99222.38;1778632;80;20984;-39
2022/06/24 06:04:18;;;;;;;7.87;2.70;;;;;;;20.38;49.42;99216.93;1778683;80;20959;-40
2022/06/24 06:06:44;;;;;;;5.58;2.27;;;;;;;20.43;49.09;99218.63;1778685;81;20990;-39
2022/06/24 06:09:10;;;;;;;3.50;2.10;;;;;;;20.49;48.92;99213.54;1778722;80;20995;-39
2022/06/24 06:11:36;;;;;;;4.58;2.55;;;;;;;20.54;48.67;99213.10;1779076;80;20988;-40
2022/06/24 06:14:02;;;;;;;5.15;2.40;;;;;;;20.59;48.52;99213.49;1778761;80;20985;-38
2022/06/24 06:16:28;;;;;;;7.40;2.08;;;;;;;20.63;48.33;99209.55;1778759;80;21003;-39
2022/06/24 06:18:54;;;;;;;9.58;2.25;;;;;;;20.68;48.33;99207.27;1778741;81;21151;-41
2022/06/24 06:21:21;;;;;;;9.48;2.60;;;;;;;20.73;48.15;99216.16;1778731;81;21035;-41
2022/06/24 06:23:47;;;;;;;5.47;2.57;;;;;;;20.75;47.95;99211.49;1779031;80;21006;-40
2022/06/24 06:26:14;;;;;;;7.53;2.27;;;;;;;20.82;48.02;99213.07;1778764;80;21364;-39
2022/06/24 06:28:41;;;;;;;5.70;2.65;;;;;;;20.86;48.13;99212.59;1778793;80;20998;-40
2022/06/24 06:31:09;;;;;;;4.47;2.25;;;;;;;20.92;47.88;99215.19;1778881;80;21003;-39
2022/06/24 06:33:35;;;;;;;7.95;2.20;;;;;;;20.98;47.92;99217.23;1778945;81;20987;-38
2022/06/24 06:36:06;;;;;;;17.30;2.72;;;;;;;21.04;47.64;99213.09;1778679;80;21063;-39
2022/06/24 06:38:32;;;;;;;5.08;2.15;;;;;;;21.10;47.62;99219.16;1778693;81;21540;-38
2022/06/24 06:40:59;;;;;;;8.10;2.62;;;;;;;21.16;47.38;99204.36;1778733;81;20995;-42
2022/06/24 06:43:24;;;;;;;4.80;2.58;;;;;;;21.21;47.30;99207.38;1778722;80;21465;-41
2022/06/24 06:45:51;;;;;;;9.08;2.75;;;;;;;21.25;47.22;99209.60;1778916;81;20987;-41
2022/06/24 06:48:17;;;;;;;6.40;2.35;;;;;;;21.30;47.32;99202.43;1778956;80;20963;-40
2022/06/24 06:50:42;;;;;;;6.67;2.25;;;;;;;21.36;46.99;99198.32;1778670;80;21042;-39
2022/06/24 06:53:08;;;;;;;3.75;2.42;;;;;;;21.43;46.89;99200.72;1778714;81;21535;-39
2022/06/24 06:55:34;;;;;;;4.17;2.02;;;;;;;21.51;46.94;99199.95;1778725;80;20999;-42
2022/06/24 06:58:00;;;;;;;5.15;2.30;;;;;;;21.57;46.80;99208.67;1778667;81;21030;-42
2022/06/24 07:00:26;;;;;;;36.05;4.47;;;;;;;21.63;46.30;99207.55;1778690;81;20972;-38
2022/06/24 07:02:52;;;;;;;8.50;2.27;;;;;;;21.72;45.83;99205.77;1778639;81;20987;-40
2022/06/24 07:05:18;;;;;;;4.10;1.95;;;;;;;21.78;45.61;99205.12;1778741;80;20999;-41
2022/06/24 07:07:44;;;;;;;4.22;2.10;;;;;;;21.84;45.24;99206.33;1778917;80;21479;-38
2022/06/24 07:10:10;;;;;;;9.08;2.30;;;;;;;21.90;45.13;99194.97;1778714;80;20991;-38
2022/06/24 07:12:35;;;;;;;7.00;2.10;;;;;;;21.96;44.02;99194.86;1778716;80;20983;-40
2022/06/24 07:15:01;;;;;;;5.87;2.30;;;;;;;22.02;44.25;99196.88;1778776;81;21051;-41
2022/06/24 07:17:27;;;;;;;5.05;2.33;;;;;;;22.08;44.09;99198.90;1778733;80;21485;-41
2022/06/24 07:19:53;;;;;;;7.95;2.67;;;;;;;22.12;44.19;99197.60;1778706;81;21484;-40
2022/06/24 07:22:19;;;;;;;7.47;2.70;;;;;;;22.18;44.06;99199.63;1779024;80;21402;-41
2022/06/24 07:24:45;;;;;;;3.77;2.50;;;;;;;22.21;44.41;99185.91;1778690;81;21042;-41
2022/06/24 07:27:11;;;;;;;6.75;2.35;;;;;;;22.26;44.48;99195.30;1778633;80;21015;-39
2022/06/24 07:29:37;;;;;;;9.30;2.50;;;;;;;22.33;45.00;99191.83;1778832;81;21003;-39
2022/06/24 07:32:05;;;;;;;9.90;2.60;;;;;;;22.41;44.60;99198.56;1778907;80;21007;-41
2022/06/24 07:34:32;;;;;;;6.58;2.42;;;;;;;22.48;44.72;99189.86;1778868;80;20998;-41
2022/06/24 07:37:01;;;;;;;4.15;2.47;;;;;;;22.54;44.97;99191.39;1778134;80;20999;-41
2022/06/24 07:39:28;;;;;;;6.65;2.08;;;;;;;22.61;44.67;99193.75;1777095;80;21544;-39
2022/06/24 07:41:55;;;;;;;4.20;2.70;;;;;;;22.65;43.50;99194.74;1777948;80;21042;-40
2022/06/24 07:44:22;;;;;;;8.60;2.60;;;;;;;22.69;44.03;99189.41;1784435;80;21118;-40
2022/06/24 07:46:49;;;;;;;5.90;2.22;;;;;;;22.74;43.66;99191.06;1785917;80;21354;-39
2022/06/24 07:49:15;;;;;;;2.72;1.95;;;;;;;22.81;43.38;99194.77;1787220;80;21498;-39
2022/06/24 07:51:41;;;;;;;3.58;2.37;;;;;;;22.84;42.44;99185.06;1787201;80;21477;-39
2022/06/24 07:54:10;;;;;;;6.67;2.40;;;;;;;22.94;43.35;99188.42;1787124;80;21034;-42
2022/06/24 07:59:22;;;;;;;5.37;2.10;;;;;;;23.11;42.99;99182.58;1787354;80;21447;-44
2022/06/24 08:01:50;;;;;;;8.38;2.20;;;;;;;23.19;42.91;99184.42;1787101;80;20963;-40
2022/06/24 08:04:15;;;;;;;7.43;2.37;;;;;;;23.29;42.82;99180.23;1787437;80;21034;-39
2022/06/24 08:06:49;;;;;;;6.28;1.80;;;;;;;23.37;42.19;99182.38;1787044;80;21483;-41
2022/06/24 08:09:14;;;;;;;5.33;2.00;;;;;;;23.42;41.44;99176.52;1786892;80;20951;-41
2022/06/24 08:11:42;;;;;;;12.80;2.08;;;;;;;23.50;41.36;99176.52;1787203;80;21018;-38
2022/06/24 08:14:08;;;;;;;3.50;2.10;;;;;;;23.60;41.60;99180.34;1787154;80;20991;-41
2022/06/24 08:16:34;;;;;;;8.75;2.05;;;;;;;23.67;40.74;99178.65;1787280;80;21034;-41
2022/06/24 08:19:00;;;;;;;3.45;1.92;;;;;;;23.78;40.71;99172.08;1787139;80;21499;-41
2022/06/24 08:21:26;;;;;;;4.12;1.90;;;;;;;23.87;40.19;99176.44;1787053;80;21491;-41
2022/06/24 08:23:51;;;;;;;3.22;2.00;;;;;;;23.97;40.12;99171.36;1787146;80;20971;-41
2022/06/24 08:26:18;;;;;;;3.08;1.62;;;;;;;24.05;39.82;99170.83;1787122;80;20964;-42
2022/06/24 08:28:44;;;;;;;4.08;1.90;;;;;;;24.15;39.22;99164.72;1787064;80;21003;-43
2022/06/24 08:31:11;;;;;;;5.53;1.72;;;;;;;24.22;38.02;99162.69;1787202;80;20991;-40
2022/06/24 08:33:37;;;;;;;11.25;2.00;;;;;;;24.34;38.28;99159.94;1786450;80;21054;-42
2022/06/24 08:36:04;;;;;;;6.17;2.35;;;;;;;24.50;38.50;99157.16;1786066;80;21492;-42
2022/06/24 08:38:30;;;;;;;12.35;2.00;;;;;;;24.62;37.74;99146.84;1787162;80;21003;-40
2022/06/24 08:41:01;;;;;;;5.97;2.30;;;;;;;24.80;37.82;99151.92;1787026;80;21049;-40
2022/06/24 08:43:30;;;;;;;11.38;2.25;;;;;;;24.99;37.25;99146.54;1784338;80;21015;-42
2022/06/24 08:45:57;;;;;;;4.67;1.52;;;;;;;25.07;36.10;99147.83;1778793;81;20984;-41
2022/06/24 08:48:31;;;;;;;6.95;2.25;;;;;;;25.22;35.66;99142.47;1778718;81;21563;-42
2022/06/24 08:50:58;;;;;;;4.12;1.90;;;;;;;25.38;35.39;99140.69;1778755;80;21003;-40
2022/06/24 08:53:27;;;;;;;7.12;1.80;;;;;;;25.53;35.53;99145.55;1778791;80;21027;-41
2022/06/24 08:55:54;;;;;;;1.90;1.70;;;;;;;25.67;35.38;99142.55;1778753;80;20975;-43
2022/06/24 08:58:21;;;;;;;9.35;1.92;;;;;;;25.78;35.37;99136.69;1778937;80;20991;-43
2022/06/24 09:00:47;;;;;;;6.00;1.90;;;;;;;25.90;35.37;99131.64;1778842;81;20964;-40
2022/06/24 09:03:14;;;;;;;6.30;2.02;;;;;;;26.02;34.98;99124.78;1778717;80;20984;-43
2022/06/24 09:05:40;;;;;;;5.63;1.80;;;;;;;26.31;34.00;99114.96;1779033;81;20995;-44
2022/06/24 09:08:10;;;;;;;9.90;1.87;;;;;;;26.31;34.00;99114.96;1779018;81;21427;-43
2022/06/24 09:10:38;;;;;;;2.55;1.80;;;;;;;26.55;34.80;99125.88;1778770;80;21659;-43
2022/06/24 09:13:05;;;;;;;3.52;1.75;;;;;;;26.79;34.24;99120.62;1778775;80;20982;-41
2022/06/24 09:15:32;;;;;;;6.05;1.62;;;;;;;26.91;33.41;99114.73;1778757;81;21046;-42
2022/06/24 09:17:59;;;;;;;;;;;;;;;27.07;33.21;99113.59;1781158;80;20984;-41
2022/06/24 09:20:28;;;;;;;11.60;2.15;;;;;;;27.31;33.18;99112.36;1778724;81;20104;-41
2022/06/24 09:23:10;;;;;;;7.37;2.00;;;;;;;27.43;32.78;99100.48;1778239;80;21027;-44
2022/06/24 09:25:53;;;;;;;3.30;1.92;;;;;;;27.63;32.83;99100.59;1778813;80;20995;-41
2022/06/24 09:28:28;;;;;;;7.37;1.77;;;;;;;27.91;32.39;99090.56;1777560;80;20952;-39
2022/06/24 09:31:08;;;;;;;4.33;1.87;;;;;;;28.19;31.20;99099.59;1778754;80;21478;-42
2022/06/24 09:33:39;;;;;;;6.03;1.52;;;;;;;28.31;30.73;99094.73;1778566;81;20988;-40
2022/06/24 09:36:11;;;;;;;10.50;2.50;;;;;;;28.57;29.08;99101.78;1778766;81;21003;-41
2022/06/24 09:38:59;;;;;;;3.75;2.05;;;;;;;28.86;30.38;99104.61;1778691;80;21007;-41
2022/06/24 09:41:27;;;;;;;2.65;1.80;;;;;;;29.25;29.91;99107.00;1777746;80;21039;-41
2022/06/24 09:43:54;;;;;;;3.98;1.90;;;;;;;29.73;28.12;99108.03;1775426;80;21035;-40
2022/06/24 09:46:23;;;;;;;3.62;1.80;;;;;;;30.31;29.42;99100.89;1743667;81;21453;-41
2022/06/24 09:48:53;;;;;;;3.75;1.62;;;;;;;30.73;29.09;99102.11;1771574;81;20980;-43
2022/06/24 09:51:19;;;;;;;3.72;1.55;;;;;;;31.09;26.92;99097.88;1771443;81;20960;-41
2022/06/24 09:53:46;;;;;;;7.03;2.40;;;;;;;31.57;27.43;99099.08;1771785;81;20996;-41
2022/06/24 09:56:13;;;;;;;88.45;6.55;;;;;;;32.09;27.16;99100.02;1772287;80;21468;-42
2022/06/24 10:00:40;;;;;;;13.72;2.50;;;;;;;32.33;26.89;99092.80;1771794;79;20981;-41
2022/06/24 10:01:11;;;;;;;14.98;2.67;;;;;;;32.84;26.04;99096.02;1767145;81;21070;-44
2022/06/24 10:03:39;;;;;;;4.10;1.98;;;;;;;33.32;24.56;99099.61;1771744;80;21010;-42
2022/06/24 10:06:11;;;;;;;36.42;3.55;;;;;;;33.83;25.38;99100.73;1771664;81;21027;-42
2022/06/24 10:08:37;;;;;;;3.85;1.67;;;;;;;34.03;24.74;99092.94;1771658;81;20995;-42
2022/06/24 10:11:08;;;;;;;5.47;1.85;;;;;;;34.40;24.27;99091.22;1771664;81;20987;-42
2022/06/24 10:13:34;;;;;;;4.87;1.85;;;;;;;34.25;21.90;99096.38;1771658;81;21392;-42
2022/06/24 10:16:05;;;;;;;2.65;2.25;;;;;;;34.52;22.92;99087.04;1771706;80;21948;-43
2022/06/24 10:18:42;;;;;;;8.90;2.00;;;;;;;34.73;22.33;99081.94;1771658;81;21031;-41
2022/06/24 10:21:11;;;;;;;6.83;2.25;;;;;;;34.84;22.46;99085.16;1771468;79;21021;-41
2022/06/24 10:23:53;;;;;;;7.55;1.98;;;;;;;34.97;22.54;99083.98;1771743;79;21017;-42
2022/06/24 10:26:32;;;;;;;5.90;2.22;;;;;;;35.23;22.57;99081.11;1771562;81;21083;-44
2022/06/24 10:29:09;;;;;;;5.35;2.15;;;;;;;35.25;21.16;99083.59;1770592;81;21022;-41
2022/06/24 10:31:49;;;;;;;7.37;2.20;;;;;;;35.75;22.00;99078.00;1771663;81;21527;-43
2022/06/24 10:34:29;;;;;;;2.50;1.62;;;;;;;35.98;21.18;99077.97;1764747;81;21007;-45
2022/06/24 10:37:09;;;;;;;4.12;1.77;;;;;;;36.28;21.15;99075.59;1771476;81;20999;-42
2022/06/24 10:39:54;;;;;;;5.10;2.12;;;;;;;36.26;20.77;99072.84;1767947;80;21517;-45
2022/06/24 10:42:23;;;;;;;6.15;1.95;;;;;;;36.70;20.75;99061.19;1771389;81;21449;-41
2022/06/24 10:44:59;;;;;;;8.30;2.83;;;;;;;36.72;20.27;99061.48;1770895;80;21039;-41
2022/06/24 10:47:29;;;;;;;5.90;1.82;;;;;;;36.72;19.20;99066.41;1780005;80;21030;-41
2022/06/24 10:50:03;;;;;;;9.63;2.35;;;;;;;36.67;18.89;99065.81;1779841;80;20991;-43
2022/06/24 10:52:36;;;;;;;3.05;1.82;;;;;;;36.83;20.17;99067.31;1781930;80;21452;-43
2022/06/24 10:55:31;;;;;;;8.53;1.77;;;;;;;37.23;20.05;99071.44;1781605;80;20974;-42
2022/06/24 10:58:13;;;;;;;4.87;1.52;;;;;;;37.20;19.90;99062.37;1744245;81;21042;-44
2022/06/24 11:00:48;;;;;;;7.83;2.10;;;;;;;37.54;20.14;99066.11;1757534;81;20968;-42
2022/06/24 11:03:16;;;;;;;2.92;1.60;;;;;;;37.63;18.82;99050.81;1756481;80;21038;-46
2022/06/24 11:05:45;;;;;;;11.45;2.42;;;;;;;37.63;18.71;99057.12;1758243;81;20995;-42
2022/06/24 11:08:15;;;;;;;4.67;1.55;;;;;;;37.95;19.43;99058.03;1757552;81;21323;-42
2022/06/24 11:10:42;;;;;;;22.87;3.47;;;;;;;38.01;18.45;99059.16;1757165;81;21623;-48
2022/06/24 11:13:10;;;;;;;3.98;1.92;;;;;;;38.04;18.92;99044.08;1757350;81;21057;-39
2022/06/24 11:15:58;;;;;;;4.40;1.90;;;;;;;38.21;18.16;99043.85;1757632;81;21590;-42
2022/06/24 11:18:33;;;;;;;21.68;2.90;;;;;;;37.74;17.40;99049.75;1758038;81;21512;-43
2022/06/24 11:21:06;;;;;;;2.20;1.55;;;;;;;38.24;18.46;99049.33;1755370;81;20988;-42
2022/06/24 11:23:35;;;;;;;2.52;2.20;;;;;;;38.26;18.14;99041.64;1717676;82;20972;-40
2022/06/24 11:26:17;;;;;;;6.53;1.72;;;;;;;38.19;18.65;99029.02;1745660;82;20971;-42
2022/06/24 11:28:55;;;;;;;2.58;1.60;;;;;;;38.48;18.13;99043.59;1745131;81;20995;-42
2022/06/24 11:31:28;;;;;;;6.97;2.12;;;;;;;38.39;18.40;99040.56;1745276;81;20991;-43
2022/06/24 11:34:10;;;;;;;5.50;1.85;;;;;;;38.27;18.04;99043.30;1745070;82;21003;-42
2022/06/24 11:36:38;;;;;;;2.67;1.30;;;;;;;38.14;17.62;99047.41;1745380;82;20948;-39
2022/06/24 11:39:07;;;;;;;3.95;1.57;;;;;;;38.58;18.43;99030.42;1745090;81;20972;-40
2022/06/24 11:41:47;;;;;;;2.62;1.60;;;;;;;38.45;17.67;99035.89;1744679;82;21003;-42
2022/06/24 11:44:14;;;;;;;11.45;1.92;;;;;;;38.68;17.74;99034.55;1744012;82;21016;-42
2022/06/24 11:46:49;;;;;;;3.35;1.42;;;;;;;38.10;17.72;99040.27;1741362;82;21124;-42
2022/06/24 11:49:15;;;;;;;3.97;1.90;;;;;;;38.24;18.25;99024.09;1742108;82;20964;-43
2022/06/24 11:51:44;;;;;;;5.08;2.00;;;;;;;38.26;18.48;99019.67;1741532;82;21468;-40
2022/06/24 11:54:11;;;;;;;2.92;1.50;;;;;;;38.50;18.03;99026.28;1741618;81;21512;-40
2022/06/24 11:56:40;;;;;;;4.83;1.45;;;;;;;38.53;18.13;99011.16;1744645;81;21046;-43
2022/06/24 11:59:07;;;;;;;4.30;1.98;;;;;;;38.27;17.91;99010.35;1777377;81;21410;-40
2022/06/24 12:01:34;;;;;;;5.53;1.52;;;;;;;37.96;17.90;99013.03;1778440;80;20987;-40
2022/06/24 12:04:06;;;;;;;3.20;1.35;;;;;;;37.84;18.34;99012.74;1778033;80;21031;-41
2022/06/24 12:06:34;;;;;;;3.55;1.67;;;;;;;37.66;18.51;99015.99;1778648;81;21035;-43
2022/06/24 12:09:00;;;;;;;1.82;1.55;;;;;;;36.94;18.57;99006.55;1778290;80;20984;-45
2022/06/24 12:11:25;;;;;;;;;;;;;;;36.52;19.26;98998.57;1780949;81;21520;-41
2022/06/24 12:14:05;;;;;;;4.42;1.50;;;;;;;36.12;19.12;98995.74;1778297;80;20217;-42
2022/06/24 12:17:09;;;;;;;3.85;1.45;;;;;;;36.20;19.16;98987.08;1778284;80;21567;-39
2022/06/24 12:19:57;;;;;;;6.57;1.77;;;;;;;35.87;19.60;98990.84;1778462;81;20972;-44
2022/06/24 12:22:23;;;;;;;7.28;1.37;;;;;;;35.60;20.21;98978.49;1778458;81;21003;-42
2022/06/24 12:25:02;;;;;;;7.42;1.65;;;;;;;35.60;20.16;98979.31;1778319;80;20980;-41
2022/06/24 12:27:38;;;;;;;6.47;1.60;;;;;;;35.17;20.80;98987.80;1778325;80;21011;-39
2022/06/24 12:30:07;;;;;;;3.37;1.80;;;;;;;34.71;20.81;98981.17;1778326;81;21034;-40
2022/06/24 12:32:55;;;;;;;3.40;1.40;;;;;;;34.38;21.27;98975.99;1778373;80;20979;-42
2022/06/24 12:35:32;;;;;;;2.62;1.40;;;;;;;34.35;21.46;98986.03;1777881;80;21500;-41
2022/06/24 12:37:58;;;;;;;7.03;1.50;;;;;;;33.83;21.87;98971.18;1778213;80;21477;-38
2022/06/24 12:40:24;;;;;;;10.80;1.73;;;;;;;33.48;22.12;98975.67;1778640;80;20991;-42
2022/06/24 12:43:16;;;;;;;4.73;1.57;;;;;;;33.24;22.56;98961.30;1778396;81;21401;-44
2022/06/24 12:45:42;;;;;;;6.10;2.00;;;;;;;33.15;22.49;98960.56;1771822;80;21055;-41
2022/06/24 12:51:06;;;;;;;7.33;1.80;;;;;;;32.95;23.01;98961.75;1771477;81;21055;-42
2022/06/24 12:53:33;;;;;;;1.67;1.40;;;;;;;32.74;23.23;98950.10;1771028;81;20980;-40
2022/06/24 12:56:00;;;;;;;87.02;6.37;;;;;;;32.48;23.29;98950.84;1771254;81;20960;-46
2022/06/24 12:58:26;;;;;;;3.50;1.80;;;;;;;32.14;24.08;98945.97;1771030;81;20996;-40
2022/06/24 13:00:52;;;;;;;5.47;1.92;;;;;;;31.96;24.55;98939.20;1765442;80;20979;-40
2022/06/24 13:03:20;;;;;;;6.23;1.87;;;;;;;31.82;24.77;98930.94;1761068;81;21035;-42
2022/06/24 13:05:47;;;;;;;2.45;1.90;;;;;;;31.85;24.75;98938.64;1760333;81;21219;-40
2022/06/24 13:08:14;;;;;;;3.75;1.65;;;;;;;31.90;24.68;98931.98;1760919;81;21031;-40
2022/06/24 13:10:40;;;;;;;7.47;1.75;;;;;;;31.90;24.68;98931.98;1760869;80;20991;-46
2022/06/24 13:13:07;;;;;;;2.12;1.90;;;;;;;32.06;24.94;98935.42;1761037;81;21355;-43
2022/06/24 13:15:33;;;;;;;2.22;1.42;;;;;;;32.09;24.68;98931.39;1760905;81;21144;-39
2022/06/24 13:17:59;;;;;;;7.50;2.30;;;;;;;31.91;24.56;98933.66;1761167;81;21373;-42
2022/06/24 13:20:25;;;;;;;3.00;1.37;;;;;;;31.88;24.58;98929.49;1760928;81;20983;-41
2022/06/24 13:22:51;;;;;;;4.42;1.87;;;;;;;31.59;24.99;98927.09;1761014;81;20999;-43
2022/06/24 13:25:17;;;;;;;6.03;1.67;;;;;;;31.43;25.04;98928.53;1760925;81;21022;-43
2022/06/24 13:27:43;;;;;;;2.65;1.70;;;;;;;31.26;25.13;98928.34;1761012;81;21104;-42
2022/06/24 13:30:12;;;;;;;2.20;1.60;;;;;;;31.15;25.53;98921.79;1761228;81;21120;-43
2022/06/24 13:32:38;;;;;;;5.72;1.87;;;;;;;31.20;25.22;98925.20;1760722;81;21186;-42
2022/06/24 13:35:05;;;;;;;5.37;1.65;;;;;;;31.24;25.15;98924.21;1761055;81;21548;-43
2022/06/24 13:37:31;;;;;;;5.55;2.00;;;;;;;31.31;25.25;98916.80;1760870;81;21493;-42
2022/06/24 13:39:57;;;;;;;8.47;1.90;;;;;;;31.43;25.88;98910.05;1761170;81;20987;-42
2022/06/24 13:42:23;;;;;;;5.60;1.90;;;;;;;31.48;25.49;98919.73;1760952;80;20995;-42
2022/06/24 13:44:52;;;;;;;3.52;1.30;;;;;;;31.47;25.68;98920.75;1767952;80;21015;-40
2022/06/24 13:47:18;;;;;;;3.30;1.60;;;;;;;31.56;25.42;98919.40;1783598;80;21424;-41
2022/06/24 13:49:44;;;;;;;3.67;1.60;;;;;;;31.55;25.40;98907.70;1783912;80;21480;-44
2022/06/24 13:52:10;;;;;;;3.67;1.67;;;;;;;31.66;25.33;98904.73;1784130;80;21057;-41
2022/06/24 13:54:36;;;;;;;1.47;1.37;;;;;;;31.70;25.47;98911.36;1783806;80;21633;-42
2022/06/24 13:57:03;;;;;;;4.70;1.30;;;;;;;31.71;25.88;98907.59;1784107;80;20983;-43
2022/06/24 13:59:29;;;;;;;3.62;1.25;;;;;;;31.67;25.33;98913.20;1783631;80;20987;-45
2022/06/24 14:01:55;;;;;;;8.97;1.70;;;;;;;31.41;25.05;98905.38;1784152;80;20982;-44
2022/06/24 14:04:20;;;;;;;5.57;1.50;;;;;;;31.42;25.57;98905.16;1783937;80;20998;-42